Time;durP1;ratioP1;P1;durP2;ratioP2;P2;SDS_P1;SDS_P2;PMS_P1;PMS_P2;Temp;Humidity;BMP_temperature;BMP_pressure;BME280_temperature;BME280_humidity;BME280_pressure;Samples;Min_cycle;Max_cycle;Signal;HPM_P1;HPM_P2
2023/07/11 00:06:02;;;;;;;3.10;2.08;;;;;;;20.62;55.57;100248.63;5070512;28;20193;-62
2023/07/11 00:08:30;;;;;;;4.68;2.65;;;;;;;20.29;55.96;100231.03;5073804;28;20632;-63
2023/07/11 00:10:58;;;;;;;6.43;2.63;;;;;;;20.17;56.10;100226.38;5067751;28;20202;-63
2023/07/11 00:13:27;;;;;;;5.25;2.40;;;;;;;20.10;56.25;100228.41;5069333;28;20193;-63
2023/07/11 00:15:57;;;;;;;6.90;2.78;;;;;;;20.00;56.54;100237.66;5071547;28;20215;-63
2023/07/11 00:18:25;;;;;;;5.30;2.40;;;;;;;20.01;56.44;100240.19;5070507;28;20616;-64
2023/07/11 00:20:53;;;;;;;4.47;2.35;;;;;;;20.12;56.20;100237.06;5062231;28;20295;-62
2023/07/11 00:23:21;;;;;;;8.43;2.60;;;;;;;20.19;56.31;100245.47;5064662;28;20324;-62
2023/07/11 00:25:49;;;;;;;6.03;2.90;;;;;;;20.19;55.26;100229.78;5057551;28;20292;-64
2023/07/11 00:28:17;;;;;;;5.68;2.72;;;;;;;20.08;55.00;100230.28;5053896;28;20202;-62
2023/07/11 00:30:47;;;;;;;3.20;2.30;;;;;;;20.03;55.98;100229.66;5068213;28;20213;-63
2023/07/11 00:33:15;;;;;;;4.18;2.88;;;;;;;20.08;56.33;100238.13;5074663;28;20225;-63
2023/07/11 00:35:48;;;;;;;5.45;2.78;;;;;;;20.09;56.47;100236.34;5074563;28;20217;-64
2023/07/11 00:38:16;;;;;;;8.93;2.90;;;;;;;20.05;57.49;100240.88;5071820;28;20201;-65
2023/07/11 00:40:46;;;;;;;4.90;2.30;;;;;;;19.99;57.76;100244.66;5071651;28;20210;-62
2023/07/11 00:43:16;;;;;;;3.83;2.63;;;;;;;20.00;58.80;100248.13;5069793;28;20200;-62
2023/07/11 00:46:12;;;;;;;13.90;2.70;;;;;;;19.95;60.33;100235.22;5071975;28;20212;-62
2023/07/11 00:48:45;;;;;;;2.80;2.47;;;;;;;19.97;59.76;100230.78;5071617;28;20219;-61
2023/07/11 00:51:19;;;;;;;3.38;2.47;;;;;;;19.88;59.83;100231.22;5063620;28;20201;-63
2023/07/11 00:53:47;;;;;;;4.82;2.58;;;;;;;19.76;60.64;100237.88;5071611;28;20351;-65
2023/07/11 00:56:19;;;;;;;5.05;3.10;;;;;;;19.63;61.09;100233.28;5071392;28;20219;-63
2023/07/11 00:58:48;;;;;;;3.47;2.53;;;;;;;19.53;61.16;100227.59;5059293;28;20221;-61
2023/07/11 01:01:19;;;;;;;4.63;2.50;;;;;;;19.38;61.96;100202.16;5072091;28;20204;-62
2023/07/11 01:03:49;;;;;;;3.72;2.38;;;;;;;19.28;61.64;100202.56;5071401;28;20604;-62
2023/07/11 01:06:21;;;;;;;5.40;2.28;;;;;;;19.23;61.96;100198.47;5071958;28;20228;-62
2023/07/11 01:08:50;;;;;;;2.75;2.30;;;;;;;19.14;62.25;100189.28;5087735;28;20234;-62
2023/07/11 01:11:19;;;;;;;4.28;2.58;;;;;;;19.08;62.69;100197.41;5077450;28;20236;-61
2023/07/11 01:13:47;;;;;;;5.53;2.75;;;;;;;19.02;62.64;100190.66;5090797;28;20215;-61
2023/07/11 01:16:17;;;;;;;4.68;2.63;;;;;;;18.91;63.35;100189.44;5089212;28;20215;-61
2023/07/11 01:18:45;;;;;;;3.88;2.20;;;;;;;18.81;63.04;100182.03;5090407;28;20660;-63
2023/07/11 01:21:18;;;;;;;6.22;2.38;;;;;;;18.76;63.19;100168.31;5089300;28;20197;-62
2023/07/11 01:23:46;;;;;;;5.30;2.30;;;;;;;18.66;63.51;100161.75;5086083;28;20209;-62
2023/07/11 01:26:16;;;;;;;5.22;2.10;;;;;;;18.61;63.68;100171.56;5073299;28;20236;-63
2023/07/11 01:28:44;;;;;;;4.93;2.58;;;;;;;18.55;63.45;100169.19;5081515;28;20211;-61
2023/07/11 01:31:13;;;;;;;3.70;2.45;;;;;;;18.46;63.59;100156.56;5081150;28;20209;-62
2023/07/11 01:33:41;;;;;;;2.58;2.30;;;;;;;18.40;63.96;100154.19;5087331;28;20213;-64
2023/07/11 01:36:09;;;;;;;2.63;2.40;;;;;;;18.32;64.37;100162.34;5092985;28;20205;-62
2023/07/11 01:38:39;;;;;;;4.07;2.40;;;;;;;18.26;64.55;100153.03;5086468;28;20208;-62
2023/07/11 01:41:07;;;;;;;4.80;2.50;;;;;;;18.21;65.02;100160.19;5089764;28;20295;-63
2023/07/11 01:43:36;;;;;;;2.58;2.38;;;;;;;18.20;65.13;100158.50;5090966;28;20199;-63
2023/07/11 01:46:04;;;;;;;3.85;2.40;;;;;;;18.18;64.85;100164.66;5082973;28;20204;-62
2023/07/11 01:48:32;;;;;;;5.65;2.80;;;;;;;18.17;65.19;100166.44;5090437;28;20197;-62
2023/07/11 01:51:01;;;;;;;3.00;2.70;;;;;;;18.20;65.16;100165.47;5090767;28;20693;-63
2023/07/11 01:53:29;;;;;;;2.90;2.25;;;;;;;18.25;64.63;100171.34;5087340;28;21233;-63
2023/07/11 01:55:59;;;;;;;2.88;2.33;;;;;;;18.24;64.56;100160.06;5085727;28;20223;-62
2023/07/11 01:58:27;;;;;;;3.28;2.25;;;;;;;18.32;64.36;100173.63;5087451;28;20211;-62
2023/07/11 02:00:55;;;;;;;3.28;2.70;;;;;;;18.39;64.43;100178.59;5090094;28;20663;-62
2023/07/11 02:03:24;;;;;;;2.10;2.00;;;;;;;18.47;63.87;100177.34;5086487;28;20291;-62
2023/07/11 02:05:53;;;;;;;3.15;2.10;;;;;;;18.49;63.93;100185.97;5082476;28;20209;-63
2023/07/11 02:08:20;;;;;;;5.30;2.17;;;;;;;18.50;63.73;100174.63;5088191;28;20206;-62
2023/07/11 02:10:48;;;;;;;3.85;2.33;;;;;;;18.50;63.79;100168.56;5090410;28;20230;-62
2023/07/11 02:13:18;;;;;;;4.35;2.20;;;;;;;18.50;63.95;100160.72;5087419;28;20213;-62
2023/07/11 02:15:46;;;;;;;2.40;1.90;;;;;;;18.49;63.72;100164.25;5079544;28;20207;-63
2023/07/11 02:18:14;;;;;;;2.40;1.83;;;;;;;18.45;63.05;100165.31;5081742;28;20201;-63
2023/07/11 02:20:43;;;;;;;3.08;1.70;;;;;;;18.43;63.04;100164.50;5087513;28;20200;-62
2023/07/11 02:23:12;;;;;;;3.35;2.00;;;;;;;18.44;62.99;100155.75;5082819;28;20248;-62
2023/07/11 02:25:41;;;;;;;3.33;1.75;;;;;;;18.48;63.03;100149.50;5082297;28;20266;-62
2023/07/11 02:28:09;;;;;;;3.45;2.10;;;;;;;18.52;62.57;100148.44;5080609;28;20200;-61
2023/07/11 02:30:38;;;;;;;2.08;1.90;;;;;;;18.48;62.04;100162.53;5071596;28;20556;-63
2023/07/11 02:33:06;;;;;;;2.42;1.80;;;;;;;18.44;62.22;100166.19;5084723;28;20251;-63
2023/07/11 02:35:34;;;;;;;2.90;2.20;;;;;;;18.47;62.16;100158.25;5079146;28;20204;-62
2023/07/11 02:38:02;;;;;;;2.65;2.10;;;;;;;18.48;62.00;100160.78;5078555;28;20319;-63
2023/07/11 02:40:30;;;;;;;2.20;1.73;;;;;;;18.50;61.62;100165.94;5089831;28;20205;-62
2023/07/11 02:42:58;;;;;;;1.75;1.65;;;;;;;18.53;61.34;100171.03;5089986;28;20316;-63
2023/07/11 02:45:26;;;;;;;1.70;1.60;;;;;;;18.59;61.11;100175.97;5093272;28;20223;-62
2023/07/11 02:47:56;;;;;;;3.67;1.58;;;;;;;18.65;60.64;100169.66;5093208;28;20239;-62
2023/07/11 02:50:24;;;;;;;3.40;1.85;;;;;;;18.68;60.31;100157.34;5092398;28;20207;-63
2023/07/11 02:52:52;;;;;;;2.95;1.75;;;;;;;18.72;60.55;100156.31;5088644;28;20236;-63
2023/07/11 02:55:19;;;;;;;2.85;1.58;;;;;;;18.72;60.25;100165.91;5092400;28;20210;-62
2023/07/11 02:57:48;;;;;;;2.03;1.67;;;;;;;18.74;59.99;100169.28;5094083;28;20205;-63
2023/07/11 03:00:16;;;;;;;2.22;1.98;;;;;;;18.80;59.79;100180.31;5096723;28;20201;-63
2023/07/11 03:02:44;;;;;;;2.00;1.80;;;;;;;18.82;59.65;100181.13;5095107;28;20207;-63
2023/07/11 03:05:14;;;;;;;3.08;1.52;;;;;;;18.88;59.69;100179.97;5093205;28;20200;-65
2023/07/11 03:07:42;;;;;;;2.13;1.50;;;;;;;18.92;59.91;100191.97;5093592;28;20209;-62
2023/07/11 03:10:10;;;;;;;1.73;1.60;;;;;;;18.90;60.06;100191.22;5091145;28;20230;-63
2023/07/11 03:12:38;;;;;;;6.55;1.65;;;;;;;18.90;60.23;100196.44;5093891;28;20208;-61
2023/07/11 03:15:07;;;;;;;3.83;1.52;;;;;;;18.89;60.52;100199.09;5093979;28;20774;-62
2023/07/11 03:17:35;;;;;;;2.95;2.40;;;;;;;18.86;60.55;100199.25;5099103;28;20298;-62
2023/07/11 03:20:04;;;;;;;2.10;1.90;;;;;;;18.86;61.10;100194.88;5094635;28;20651;-62
2023/07/11 03:22:33;;;;;;;1.73;1.55;;;;;;;18.86;60.94;100191.44;5091469;28;20288;-63
2023/07/11 03:25:01;;;;;;;3.70;2.10;;;;;;;18.86;61.32;100196.66;5085316;28;20613;-62
2023/07/11 03:27:29;;;;;;;2.80;2.28;;;;;;;18.81;61.44;100213.38;5079677;28;20243;-64
2023/07/11 03:29:57;;;;;;;3.38;2.00;;;;;;;18.77;61.81;100213.53;5086862;28;20216;-61
2023/07/11 03:32:25;;;;;;;2.78;2.47;;;;;;;18.79;61.85;100211.72;5085624;28;20205;-63
2023/07/11 03:34:53;;;;;;;2.53;2.28;;;;;;;18.84;62.09;100214.97;5086614;28;20610;-64
2023/07/11 03:37:30;;;;;;;3.83;2.60;;;;;;;18.84;61.90;100214.97;5088613;28;20212;-63
2023/07/11 03:40:00;;;;;;;3.10;2.80;;;;;;;18.82;62.13;100216.81;5087796;28;20201;-63
2023/07/11 03:42:28;;;;;;;3.05;1.88;;;;;;;18.84;62.24;100217.59;5090617;28;20243;-63
2023/07/11 03:44:57;;;;;;;2.47;1.92;;;;;;;18.78;62.67;100208.28;5089167;28;20211;-62
2023/07/11 03:47:25;;;;;;;5.65;2.03;;;;;;;18.91;62.48;100229.47;5092626;28;20204;-61
2023/07/11 03:49:53;;;;;;;3.22;2.45;;;;;;;19.02;62.42;100242.91;5091898;28;20231;-64
2023/07/11 03:52:21;;;;;;;3.10;1.98;;;;;;;19.12;62.49;100247.75;5092776;28;20255;-63
2023/07/11 03:54:49;;;;;;;2.70;2.33;;;;;;;19.22;61.97;100241.19;5084164;28;20209;-63
2023/07/11 03:57:18;;;;;;;2.65;2.15;;;;;;;19.27;61.59;100245.28;5086894;28;20564;-63
2023/07/11 03:59:47;;;;;;;3.05;2.33;;;;;;;19.24;61.51;100242.81;5091094;28;20212;-62
2023/07/11 04:02:15;;;;;;;4.28;2.03;;;;;;;19.24;61.02;100241.97;5090989;28;20200;-63
2023/07/11 04:04:43;;;;;;;4.90;2.50;;;;;;;19.21;61.12;100252.53;5088435;28;20205;-64
2023/07/11 04:07:11;;;;;;;2.53;2.30;;;;;;;19.18;61.28;100252.69;5089745;28;20602;-62
2023/07/11 04:09:40;;;;;;;7.55;2.47;;;;;;;19.18;61.04;100253.53;5086509;28;20209;-62
2023/07/11 04:12:09;;;;;;;2.35;1.92;;;;;;;19.11;61.21;100252.13;5089812;28;20566;-61
2023/07/11 04:14:38;;;;;;;2.50;2.30;;;;;;;19.08;61.13;100257.47;5091701;28;20212;-63
2023/07/11 04:17:07;;;;;;;3.95;2.28;;;;;;;19.03;61.38;100262.03;5078464;28;20201;-62
2023/07/11 04:19:35;;;;;;;3.72;2.60;;;;;;;19.00;61.80;100265.63;5081927;28;20652;-63
2023/07/11 04:22:03;;;;;;;2.35;2.15;;;;;;;19.00;62.31;100270.00;5087320;28;20660;-63
2023/07/11 04:24:31;;;;;;;4.88;2.25;;;;;;;19.06;62.26;100269.72;5075274;28;20205;-61
2023/07/11 04:26:59;;;;;;;3.20;2.38;;;;;;;19.13;62.07;100270.31;5089356;28;20236;-63
2023/07/11 04:29:27;;;;;;;2.30;2.10;;;;;;;19.20;61.90;100276.97;5089288;28;20569;-61
2023/07/11 04:31:57;;;;;;;3.03;2.00;;;;;;;19.24;61.84;100287.22;5081575;28;20223;-62
2023/07/11 04:34:25;;;;;;;2.42;2.22;;;;;;;19.21;61.72;100297.81;5090245;28;20299;-63
2023/07/11 04:36:53;;;;;;;2.17;1.98;;;;;;;19.21;62.13;100292.56;5084406;28;20196;-62
2023/07/11 04:39:21;;;;;;;2.63;2.28;;;;;;;19.23;62.06;100288.16;5085862;28;20208;-61
2023/07/11 04:41:49;;;;;;;2.75;2.15;;;;;;;19.18;62.24;100287.47;5084835;28;20250;-62
2023/07/11 04:44:17;;;;;;;3.70;2.20;;;;;;;19.08;63.04;100287.97;5085006;28;20196;-62
2023/07/11 04:46:45;;;;;;;4.00;2.33;;;;;;;19.04;62.88;100287.25;5091664;28;20243;-62
2023/07/11 04:49:14;;;;;;;2.25;1.90;;;;;;;19.04;62.86;100288.09;5087578;28;20270;-63
2023/07/11 04:51:42;;;;;;;3.30;1.92;;;;;;;19.07;62.95;100287.09;5091675;28;21260;-62
2023/07/11 04:54:10;;;;;;;4.10;1.98;;;;;;;19.12;62.66;100285.16;5091521;28;20225;-62
2023/07/11 04:56:40;;;;;;;3.65;2.40;;;;;;;19.15;62.31;100285.03;5091674;28;20192;-63
2023/07/11 04:59:08;;;;;;;2.40;1.60;;;;;;;19.15;62.43;100292.88;5092458;28;20572;-62
2023/07/11 05:01:36;;;;;;;3.50;2.10;;;;;;;19.18;62.11;100295.31;5091823;28;20193;-62
2023/07/11 05:04:05;;;;;;;3.05;2.08;;;;;;;19.30;61.85;100297.41;5089735;28;20258;-62
2023/07/11 05:06:34;;;;;;;2.38;1.85;;;;;;;19.36;61.51;100292.84;5091857;28;20205;-64
2023/07/11 05:09:02;;;;;;;4.68;1.77;;;;;;;19.35;61.57;100285.91;5091480;28;20677;-63
2023/07/11 05:11:30;;;;;;;8.10;2.40;;;;;;;19.33;61.60;100291.22;5085129;28;20209;-63
2023/07/11 05:13:58;;;;;;;2.08;1.83;;;;;;;19.27;61.89;100287.09;5090677;28;20675;-62
2023/07/11 05:16:28;;;;;;;1.95;1.85;;;;;;;19.33;62.07;100279.91;5086202;28;20207;-64
2023/07/11 05:18:57;;;;;;;4.10;2.00;;;;;;;19.40;61.58;100278.72;5079848;28;20286;-64
2023/07/11 05:21:26;;;;;;;2.53;1.70;;;;;;;19.39;61.62;100271.78;5079522;28;20203;-62
2023/07/11 05:23:56;;;;;;;1.92;1.65;;;;;;;19.39;61.50;100275.25;5081134;28;20594;-63
2023/07/11 05:26:24;;;;;;;3.75;2.00;;;;;;;19.44;61.55;100273.31;5072132;28;20283;-62
2023/07/11 05:28:52;;;;;;;3.40;1.83;;;;;;;20.06;61.66;100273.97;5080246;28;20200;-63
2023/07/11 05:31:20;;;;;;;2.05;1.80;;;;;;;20.38;59.13;100271.59;5081772;28;20208;-63
2023/07/11 05:33:48;;;;;;;2.08;1.88;;;;;;;20.39;58.24;100271.50;5087117;28;20200;-62
2023/07/11 05:36:25;;;;;;;1.88;1.70;;;;;;;20.14;58.13;100266.63;5078209;28;20205;-63
2023/07/11 05:38:54;;;;;;;3.30;1.65;;;;;;;19.85;58.45;100267.16;5089045;28;20233;-63
2023/07/11 05:41:23;;;;;;;2.33;1.70;;;;;;;19.63;59.68;100254.22;5085642;28;20296;-66
2023/07/11 05:43:51;;;;;;;2.13;1.60;;;;;;;19.49;60.08;100250.41;5086330;28;20216;-64
2023/07/11 05:46:19;;;;;;;2.13;2.03;;;;;;;19.45;60.70;100251.47;5091266;28;20270;-64
2023/07/11 05:48:47;;;;;;;2.95;1.80;;;;;;;19.49;60.20;100258.25;5090737;28;20235;-64
2023/07/11 05:51:17;;;;;;;7.30;2.00;;;;;;;19.58;60.31;100264.81;5089364;28;20192;-61
2023/07/11 05:53:48;;;;;;;2.50;1.88;;;;;;;19.64;59.47;100266.34;5086423;28;20201;-62
2023/07/11 05:56:17;;;;;;;1.40;1.30;;;;;;;19.63;59.01;100270.75;5082018;28;20245;-61
2023/07/11 05:58:48;;;;;;;2.03;1.52;;;;;;;19.62;58.81;100273.38;5089769;28;20250;-62
2023/07/11 06:01:18;;;;;;;4.88;1.65;;;;;;;19.60;58.50;100283.91;5083990;28;20602;-64
2023/07/11 06:03:46;;;;;;;2.03;1.40;;;;;;;19.63;58.77;100290.81;5081145;28;20201;-62
2023/07/11 06:06:19;;;;;;;3.05;1.98;;;;;;;19.70;58.52;100306.16;5087857;28;20208;-63
2023/07/11 06:08:47;;;;;;;2.17;1.55;;;;;;;19.76;59.09;100313.69;5085628;28;20558;-62
2023/07/11 06:11:15;;;;;;;3.55;2.05;;;;;;;19.89;58.64;100313.16;5083473;28;20201;-65
2023/07/11 06:13:43;;;;;;;2.55;1.95;;;;;;;20.00;58.49;100311.72;5081567;28;20219;-62
2023/07/11 06:16:19;;;;;;;2.60;1.67;;;;;;;20.18;58.14;100303.97;5087892;28;20218;-63
2023/07/11 06:18:48;;;;;;;1.70;1.60;;;;;;;21.34;58.44;100307.88;5090139;28;20245;-62
2023/07/11 06:21:16;;;;;;;3.10;1.40;;;;;;;22.31;53.50;100298.25;5083430;28;20208;-62
2023/07/11 06:23:46;;;;;;;1.67;1.50;;;;;;;22.65;51.64;100294.59;5092218;28;20676;-63
2023/07/11 06:26:14;;;;;;;3.15;1.85;;;;;;;22.38;51.46;100292.56;5084181;28;20229;-62
2023/07/11 06:28:42;;;;;;;2.83;1.67;;;;;;;21.85;52.37;100303.41;5094214;28;20667;-61
2023/07/11 06:31:14;;;;;;;3.25;2.00;;;;;;;21.39;53.91;100301.47;5091341;28;20267;-61
2023/07/11 06:33:42;;;;;;;2.10;1.50;;;;;;;21.04;55.42;100305.03;5083165;28;20223;-63
2023/07/11 06:36:10;;;;;;;2.67;1.95;;;;;;;20.80;56.31;100312.31;5090029;28;20213;-63
2023/07/11 06:38:39;;;;;;;4.65;1.80;;;;;;;20.63;57.55;100306.16;5094537;28;20197;-67
2023/07/11 06:41:07;;;;;;;2.20;1.67;;;;;;;20.52;57.66;100303.22;5093828;28;20240;-66
2023/07/11 06:43:35;;;;;;;4.20;1.90;;;;;;;20.52;57.70;100311.06;5081732;28;20204;-63
2023/07/11 06:46:03;;;;;;;3.03;1.70;;;;;;;20.47;57.46;100313.00;5093295;28;20193;-63
2023/07/11 06:48:33;;;;;;;5.88;2.17;;;;;;;20.44;57.88;100321.03;5094373;28;20211;-62
2023/07/11 06:51:03;;;;;;;2.67;1.58;;;;;;;20.41;57.59;100318.56;5094360;28;20602;-64
2023/07/11 06:53:35;;;;;;;2.42;1.85;;;;;;;20.37;57.65;100324.88;5094214;28;20555;-64
2023/07/11 06:56:04;;;;;;;2.08;1.77;;;;;;;20.34;58.28;100330.25;5094266;28;20243;-65
2023/07/11 06:58:33;;;;;;;1.88;1.73;;;;;;;20.32;58.49;100335.53;5092932;28;20201;-63
2023/07/11 07:01:02;;;;;;;2.38;1.60;;;;;;;20.30;58.57;100333.94;5089219;28;20621;-62
2023/07/11 07:03:33;;;;;;;3.75;1.90;;;;;;;20.27;58.94;100335.75;5089443;28;20231;-64
2023/07/11 07:06:03;;;;;;;3.70;2.25;;;;;;;20.31;59.09;100351.31;5091348;28;20215;-62
2023/07/11 07:08:31;;;;;;;3.80;2.70;;;;;;;20.30;58.97;100350.47;5089945;28;20633;-63
2023/07/11 07:10:59;;;;;;;3.92;3.00;;;;;;;20.25;58.92;100348.06;5092772;28;20208;-63
2023/07/11 07:13:27;;;;;;;5.10;2.70;;;;;;;20.24;59.35;100354.22;5084564;28;20609;-64
2023/07/11 07:15:58;;;;;;;6.25;3.47;;;;;;;20.27;59.14;100358.47;5090015;28;20243;-62
2023/07/11 07:18:29;;;;;;;5.70;3.03;;;;;;;20.23;59.52;100354.28;5086464;28;20213;-64
2023/07/11 07:20:59;;;;;;;10.07;3.83;;;;;;;20.15;60.20;100357.25;5087654;28;20205;-62
2023/07/11 07:23:27;;;;;;;5.32;3.22;;;;;;;20.12;60.31;100362.63;5082741;28;20204;-62
2023/07/11 07:25:58;;;;;;;6.20;2.97;;;;;;;20.12;60.57;100356.56;5083287;28;20235;-62
2023/07/11 07:28:27;;;;;;;11.27;5.57;;;;;;;20.13;60.56;100359.09;5086841;28;20208;-62
2023/07/11 07:30:56;;;;;;;7.53;4.70;;;;;;;20.10;60.73;100368.84;5087889;28;20295;-62
2023/07/11 07:33:26;;;;;;;6.53;4.18;;;;;;;20.07;60.84;100361.13;5091417;28;20196;-63
2023/07/11 07:35:56;;;;;;;9.82;4.28;;;;;;;20.06;60.71;100362.06;5086917;28;20576;-62
2023/07/11 07:38:27;;;;;;;8.73;4.10;;;;;;;20.04;60.88;100364.75;5088773;28;20200;-63
2023/07/11 07:40:57;;;;;;;7.10;4.00;;;;;;;20.01;61.16;100359.66;5085178;28;20205;-62
2023/07/11 07:43:27;;;;;;;7.45;3.88;;;;;;;19.98;61.29;100367.66;5088815;28;20204;-63
2023/07/11 07:45:56;;;;;;;4.85;2.97;;;;;;;19.99;61.93;100369.34;5087147;28;20648;-63
2023/07/11 07:48:26;;;;;;;5.35;2.80;;;;;;;19.91;61.76;100366.22;5088706;28;20213;-65
2023/07/11 07:51:00;;;;;;;5.53;2.95;;;;;;;19.80;61.82;100364.09;5087946;28;20250;-63
2023/07/11 07:53:30;;;;;;;3.60;2.13;;;;;;;19.82;61.37;100369.25;5090151;28;20286;-63
2023/07/11 07:56:03;;;;;;;6.82;2.47;;;;;;;19.84;60.57;100370.88;5089918;28;20225;-63
2023/07/11 07:58:31;;;;;;;1.73;1.63;;;;;;;19.94;60.09;100377.41;5088322;28;20273;-63
2023/07/11 08:01:10;;;;;;;3.00;1.77;;;;;;;20.06;59.08;100383.84;5087183;28;20206;-62
2023/07/11 08:03:38;;;;;;;1.73;1.63;;;;;;;20.12;58.06;100383.56;5072217;28;20663;-63
2023/07/11 08:06:06;;;;;;;2.13;1.38;;;;;;;20.12;57.91;100383.56;5089718;28;20770;-64
2023/07/11 08:08:39;;;;;;;2.33;1.88;;;;;;;20.17;57.90;100392.03;5089523;28;20197;-63
2023/07/11 08:11:08;;;;;;;3.15;1.58;;;;;;;20.24;57.95;100390.84;5087672;28;20254;-63
2023/07/11 08:13:37;;;;;;;2.20;1.40;;;;;;;20.34;57.10;100393.91;5092006;28;20304;-63
2023/07/11 08:16:25;;;;;;;1.95;1.75;;;;;;;20.39;56.99;100394.53;5085847;28;20707;-63
2023/07/11 08:19:01;;;;;;;1.70;1.55;;;;;;;20.42;56.82;100401.38;5091131;28;20200;-62
2023/07/11 08:21:29;;;;;;;2.38;1.60;;;;;;;20.42;57.08;100391.75;5090756;28;20246;-63
2023/07/11 08:23:59;;;;;;;1.83;1.52;;;;;;;20.35;57.62;100408.66;5090004;28;20555;-63
2023/07/11 08:26:27;;;;;;;2.30;1.85;;;;;;;20.41;57.87;100403.16;5089010;28;20237;-62
2023/07/11 08:28:56;;;;;;;2.90;1.50;;;;;;;20.51;57.65;100406.25;5081011;28;20211;-64
2023/07/11 08:31:25;;;;;;;1.85;1.60;;;;;;;20.47;57.05;100405.50;5085586;28;20666;-65
2023/07/11 08:33:54;;;;;;;1.67;1.58;;;;;;;20.49;56.78;100408.03;5081012;28;20209;-66
2023/07/11 08:36:22;;;;;;;1.60;1.27;;;;;;;20.50;56.80;100400.13;5081123;28;20259;-64
2023/07/11 08:38:50;;;;;;;1.45;1.30;;;;;;;20.57;55.84;100405.94;5089805;28;20196;-65
2023/07/11 08:41:28;;;;;;;4.68;2.28;;;;;;;20.58;56.14;100405.00;5078484;28;20212;-65
2023/07/11 08:44:01;;;;;;;5.68;3.03;;;;;;;20.60;55.74;100408.41;5085450;28;20209;-64
2023/07/11 08:46:35;;;;;;;5.47;3.65;;;;;;;20.63;56.18;100415.28;5088908;28;20197;-65
2023/07/11 08:49:06;;;;;;;9.60;4.28;;;;;;;20.74;56.22;100413.00;5080541;28;20211;-65
2023/07/11 08:51:39;;;;;;;8.48;4.05;;;;;;;20.83;56.12;100416.94;5086280;28;20250;-64
2023/07/11 08:54:15;;;;;;;7.75;3.90;;;;;;;20.87;56.25;100413.25;5091324;28;20204;-64
2023/07/11 08:56:47;;;;;;;6.78;3.53;;;;;;;20.86;55.63;100416.78;5091124;28;20661;-63
2023/07/11 08:59:20;;;;;;;6.90;3.08;;;;;;;20.82;55.63;100413.47;5090497;28;20200;-64
2023/07/11 09:01:55;;;;;;;9.38;3.30;;;;;;;20.89;55.55;100419.28;5091886;28;20627;-64
2023/07/11 09:04:24;;;;;;;4.18;2.03;;;;;;;20.96;55.43;100423.28;5083876;28;20527;-65
2023/07/11 09:06:55;;;;;;;11.10;3.28;;;;;;;21.06;55.30;100418.44;5080113;28;20638;-65
2023/07/11 09:09:26;;;;;;;3.78;2.47;;;;;;;21.16;55.11;100414.44;5093055;28;20262;-64
2023/07/11 09:12:08;;;;;;;4.18;1.80;;;;;;;21.19;54.37;100414.28;5086727;28;20235;-63
2023/07/11 09:14:48;;;;;;;1.85;1.63;;;;;;;21.12;54.00;100418.97;5083868;28;20200;-65
2023/07/11 09:17:24;;;;;;;7.80;2.13;;;;;;;21.07;54.56;100415.75;5091108;28;20747;-66
2023/07/11 09:20:07;;;;;;;5.00;1.80;;;;;;;21.13;54.27;100425.06;5091180;28;20204;-64
2023/07/11 09:22:48;;;;;;;3.90;1.70;;;;;;;21.23;53.41;100424.53;5089279;28;20261;-64
2023/07/11 09:25:20;;;;;;;7.30;2.05;;;;;;;21.30;53.31;100422.47;5086999;28;20623;-63
2023/07/11 09:27:55;;;;;;;4.47;1.95;;;;;;;21.50;53.28;100425.88;5074676;28;20236;-64
2023/07/11 09:30:31;;;;;;;3.83;1.80;;;;;;;21.68;52.77;100432.81;5071081;28;20213;-65
2023/07/11 09:33:11;;;;;;;3.03;1.52;;;;;;;21.87;51.98;100419.59;5085294;28;20214;-65
2023/07/11 09:35:40;;;;;;;3.42;1.70;;;;;;;22.21;50.93;100416.06;5072404;28;20232;-64
2023/07/11 09:38:15;;;;;;;3.58;1.60;;;;;;;22.37;50.44;100422.19;5073980;28;20221;-65
2023/07/11 09:40:47;;;;;;;5.05;1.60;;;;;;;22.67;50.48;100414.38;5070968;28;20204;-66
2023/07/11 09:43:16;;;;;;;4.10;1.58;;;;;;;23.31;49.30;100403.78;5070878;28;20201;-64
2023/07/11 09:45:46;;;;;;;2.05;1.55;;;;;;;23.84;46.05;100402.38;5077792;28;20244;-65
2023/07/11 09:48:18;;;;;;;1.95;1.52;;;;;;;24.05;45.69;100395.81;5080867;28;20291;-64
2023/07/11 09:50:56;;;;;;;2.08;1.30;;;;;;;24.25;45.28;100396.34;5089409;28;20573;-65
2023/07/11 09:53:43;;;;;;;3.17;1.50;;;;;;;24.51;44.71;100397.34;5090596;28;20676;-66
2023/07/11 09:56:13;;;;;;;1.75;1.35;;;;;;;24.80;43.35;100393.66;5075438;28;20197;-64
2023/07/11 09:58:47;;;;;;;1.92;1.10;;;;;;;24.74;42.44;100383.56;5077515;28;20617;-65
2023/07/11 10:01:23;;;;;;;2.38;1.63;;;;;;;25.13;41.65;100394.22;5088423;28;20200;-64
2023/07/11 10:03:54;;;;;;;1.60;1.50;;;;;;;25.75;40.72;100387.31;5085519;28;20231;-64
2023/07/11 10:06:31;;;;;;;1.95;1.20;;;;;;;26.49;37.94;100375.06;5082283;28;20201;-65
2023/07/11 10:09:14;;;;;;;1.90;1.15;;;;;;;26.60;37.93;100382.22;5084292;28;20224;-66
2023/07/11 10:11:42;;;;;;;1.58;1.00;;;;;;;27.19;37.17;100376.09;5077178;28;20205;-65
2023/07/11 10:14:18;;;;;;;1.20;1.10;;;;;;;28.35;34.48;100376.75;5074340;28;20206;-63
2023/07/11 10:16:46;;;;;;;1.27;1.17;;;;;;;29.33;32.69;100385.47;5075472;28;20224;-63
2023/07/11 10:19:16;;;;;;;4.03;1.60;;;;;;;30.17;30.56;100376.53;5085338;28;20197;-64
2023/07/11 10:21:45;;;;;;;2.15;1.20;;;;;;;31.44;29.58;100379.09;5089824;28;20554;-64
2023/07/11 10:24:18;;;;;;;2.55;1.60;;;;;;;33.02;27.08;100369.13;5086919;28;20648;-65
2023/07/11 10:26:51;;;;;;;2.83;1.30;;;;;;;34.34;24.58;100363.50;5086611;28;20229;-63
2023/07/11 10:29:24;;;;;;;1.10;1.00;;;;;;;34.78;24.28;100365.91;5088072;28;20201;-66
2023/07/11 10:31:57;;;;;;;3.10;1.27;;;;;;;34.64;23.48;100361.22;5077767;28;20197;-63
2023/07/11 10:34:30;;;;;;;1.48;1.38;;;;;;;35.01;23.64;100361.59;5080031;28;20319;-66
2023/07/11 10:37:05;;;;;;;1.50;1.38;;;;;;;35.36;22.84;100351.50;5075632;28;20580;-64
2023/07/11 10:39:41;;;;;;;2.17;1.50;;;;;;;34.30;23.21;100360.31;5081302;28;20274;-66
2023/07/11 10:42:30;;;;;;;1.23;1.10;;;;;;;33.00;25.27;100359.63;5079876;28;20205;-63
2023/07/11 10:45:08;;;;;;;1.35;1.10;;;;;;;31.81;26.53;100358.78;5090736;28;20205;-65
2023/07/11 10:47:45;;;;;;;2.53;1.30;;;;;;;30.98;28.03;100361.25;5073968;28;20197;-65
2023/07/11 10:50:25;;;;;;;1.42;1.27;;;;;;;30.46;28.64;100355.34;5074048;28;20610;-65
2023/07/11 10:52:58;;;;;;;2.08;1.20;;;;;;;30.29;29.06;100351.50;5074067;28;20243;-66
2023/07/11 10:55:33;;;;;;;1.30;1.00;;;;;;;31.38;27.55;100352.22;5073891;28;20606;-64
2023/07/11 10:58:02;;;;;;;1.52;1.30;;;;;;;32.70;25.94;100359.00;5073863;28;20304;-64
2023/07/11 11:00:49;;;;;;;5.00;1.63;;;;;;;33.58;24.48;100349.19;5074419;28;20199;-65
2023/07/11 11:03:35;;;;;;;4.13;1.80;;;;;;;33.88;24.20;100360.34;5073011;28;20193;-65
2023/07/11 11:06:29;;;;;;;3.20;1.40;;;;;;;34.23;23.10;100353.94;5074904;28;20202;-64
2023/07/11 11:09:08;;;;;;;1.63;1.13;;;;;;;34.69;22.24;100353.53;5074517;28;20255;-64
2023/07/11 11:11:47;;;;;;;1.45;1.33;;;;;;;35.34;20.79;100348.16;5089603;28;20243;-64
2023/07/11 11:14:21;;;;;;;2.88;1.27;;;;;;;35.36;20.94;100351.50;5073371;28;20285;-65
2023/07/11 11:17:09;;;;;;;1.23;1.13;;;;;;;34.38;22.21;100354.97;5090332;28;20209;-64
2023/07/11 11:19:53;;;;;;;1.02;0.93;;;;;;;34.34;23.05;100355.47;5084495;28;20327;-65
2023/07/11 11:22:28;;;;;;;1.58;0.98;;;;;;;33.59;23.63;100353.50;5102150;28;20204;-65
2023/07/11 11:25:00;;;;;;;1.80;1.30;;;;;;;32.20;25.64;100360.31;5079406;28;20205;-63
2023/07/11 11:27:43;;;;;;;1.63;1.27;;;;;;;30.68;27.84;100365.69;5083991;28;20584;-64
2023/07/11 11:30:26;;;;;;;1.48;1.17;;;;;;;29.35;28.67;100367.59;5076673;28;20200;-64
2023/07/11 11:33:09;;;;;;;1.20;1.00;;;;;;;28.06;31.03;100365.88;5081461;28;20258;-66
2023/07/11 11:35:51;;;;;;;2.00;1.13;;;;;;;27.20;33.42;100368.03;5072896;28;20201;-64
2023/07/11 11:38:43;;;;;;;1.25;1.15;;;;;;;26.68;34.82;100373.72;5077194;28;20578;-64
2023/07/11 11:41:14;;;;;;;1.05;0.95;;;;;;;26.38;35.75;100372.31;5084786;28;20211;-64
2023/07/11 11:43:46;;;;;;;2.22;1.38;;;;;;;26.13;36.13;100372.41;5076384;28;20201;-65
2023/07/11 11:46:18;;;;;;;2.40;1.30;;;;;;;25.95;36.68;100374.53;5076350;28;20207;-65